Terminal Aerodrome Forecast
Issued by NWS Sterling, VA

Current Version | Previous Version | Text Only | Print | Product List | Glossary Off
Versions: 1 2 3 4 5 6 7 8 9 10 11 12 13 14 15 16

530
FTUS41 KLWX 090531
TAFMRB
TAF
KMRB 090531Z 0906/1006 VRB04KT P6SM -RASN OVC020
     FM090900 07004KT 1SM -SN OVC020
     FM091400 VRB03KT 1/2SM SN OVC015
     FM091900 30006KT 3SM -SHSN OVC025=

USA.gov is the U.S. government's official web portal to all federal, state and local government web resources and services.